sensor_id;sensor_type;location;lat;lon;timestamp;pressure;altitude;pressure_sealevel;temperature;humidity
26823;BME280;14852;51.910;8.878;2023-05-02T00:00:33;99825.53;;;15.23;52.96
26823;BME280;14852;51.910;8.878;2023-05-02T00:02:59;99832.34;;;15.26;53.16
26823;BME280;14852;51.910;8.878;2023-05-02T00:05:26;99826.91;;;15.29;53.35
26823;BME280;14852;51.910;8.878;2023-05-02T00:07:52;99823.44;;;15.28;52.92
26823;BME280;14852;51.910;8.878;2023-05-02T00:10:18;99830.47;;;15.28;53.06
26823;BME280;14852;51.910;8.878;2023-05-02T00:12:44;99825.22;;;15.28;52.97
26823;BME280;14852;51.910;8.878;2023-05-02T00:15:09;99829.72;;;15.26;53.50
26823;BME280;14852;51.910;8.878;2023-05-02T00:17:36;99824.59;;;15.24;53.50
26823;BME280;14852;51.910;8.878;2023-05-02T00:20:04;99822.81;;;15.25;53.32
26823;BME280;14852;51.910;8.878;2023-05-02T00:22:30;99822.72;;;15.26;53.68
26823;BME280;14852;51.910;8.878;2023-05-02T00:24:57;99823.56;;;15.27;53.37
26823;BME280;14852;51.910;8.878;2023-05-02T00:27:23;99824.28;;;15.29;53.52
26823;BME280;14852;51.910;8.878;2023-05-02T00:29:49;99828.69;;;15.28;53.69
26823;BME280;14852;51.910;8.878;2023-05-02T00:32:17;99826.91;;;15.29;53.79
26823;BME280;14852;51.910;8.878;2023-05-02T00:34:43;99829.44;;;15.30;53.50
26823;BME280;14852;51.910;8.878;2023-05-02T00:37:09;99829.31;;;15.32;53.73
26823;BME280;14852;51.910;8.878;2023-05-02T00:39:35;99837.16;;;15.32;53.95
26823;BME280;14852;51.910;8.878;2023-05-02T00:42:01;99831.19;;;15.30;54.02
26823;BME280;14852;51.910;8.878;2023-05-02T00:44:27;99837.69;;;15.24;53.92
26823;BME280;14852;51.910;8.878;2023-05-02T00:46:54;99837.19;;;15.19;53.79
26823;BME280;14852;51.910;8.878;2023-05-02T00:49:21;99834.16;;;15.12;54.33
26823;BME280;14852;51.910;8.878;2023-05-02T00:51:47;99835.34;;;15.08;54.48
26823;BME280;14852;51.910;8.878;2023-05-02T00:54:13;99837.31;;;15.05;54.27
26823;BME280;14852;51.910;8.878;2023-05-02T00:56:39;99846.09;;;15.04;54.76
26823;BME280;14852;51.910;8.878;2023-05-02T00:59:07;99844.97;;;15.08;54.72
26823;BME280;14852;51.910;8.878;2023-05-02T01:05:16;99852.06;;;15.18;54.38
26823;BME280;14852;51.910;8.878;2023-05-02T01:08:09;99841.59;;;15.18;54.40
26823;BME280;14852;51.910;8.878;2023-05-02T01:11:13;99846.94;;;15.17;54.04
26823;BME280;14852;51.910;8.878;2023-05-02T01:13:42;99840.47;;;15.10;54.19
26823;BME280;14852;51.910;8.878;2023-05-02T01:16:11;99847.69;;;15.06;54.67
26823;BME280;14852;51.910;8.878;2023-05-02T01:18:41;99853.66;;;15.08;54.65
26823;BME280;14852;51.910;8.878;2023-05-02T01:21:10;99846.75;;;15.07;54.43
26823;BME280;14852;51.910;8.878;2023-05-02T01:24:01;99855.09;;;15.12;54.36
26823;BME280;14852;51.910;8.878;2023-05-02T01:27:06;99844.53;;;15.14;54.37
26823;BME280;14852;51.910;8.878;2023-05-02T01:29:36;99845.69;;;15.10;54.58
26823;BME280;14852;51.910;8.878;2023-05-02T01:32:05;99850.94;;;15.10;54.65
26823;BME280;14852;51.910;8.878;2023-05-02T01:34:35;99856.03;;;15.11;54.79
26823;BME280;14852;51.910;8.878;2023-05-02T01:37:03;99856.16;;;15.10;55.00
26823;BME280;14852;51.910;8.878;2023-05-02T01:39:31;99861.25;;;15.11;55.07
26823;BME280;14852;51.910;8.878;2023-05-02T01:42:01;99858.66;;;15.11;55.12
26823;BME280;14852;51.910;8.878;2023-05-02T01:44:29;99867.34;;;15.12;55.21
26823;BME280;14852;51.910;8.878;2023-05-02T01:46:58;99867.47;;;15.10;55.00
26823;BME280;14852;51.910;8.878;2023-05-02T01:49:26;99863.19;;;15.09;55.05
26823;BME280;14852;51.910;8.878;2023-05-02T01:51:53;99871.34;;;15.05;55.29
26823;BME280;14852;51.910;8.878;2023-05-02T01:54:22;99880.13;;;15.04;55.33
26823;BME280;14852;51.910;8.878;2023-05-02T01:56:49;99875.81;;;15.03;55.20
26823;BME280;14852;51.910;8.878;2023-05-02T01:59:19;99877.41;;;15.05;55.15
26823;BME280;14852;51.910;8.878;2023-05-02T02:01:47;99888.59;;;15.07;55.21
26823;BME280;14852;51.910;8.878;2023-05-02T02:04:15;99886.72;;;15.09;55.16
26823;BME280;14852;51.910;8.878;2023-05-02T02:06:48;99885.66;;;15.12;55.26
26823;BME280;14852;51.910;8.878;2023-05-02T02:09:16;99890.06;;;15.11;55.07
26823;BME280;14852;51.910;8.878;2023-05-02T02:12:11;99889.00;;;15.14;55.17
26823;BME280;14852;51.910;8.878;2023-05-02T02:14:50;99893.63;;;15.10;55.00
26823;BME280;14852;51.910;8.878;2023-05-02T02:17:38;99893.75;;;15.09;55.53
26823;BME280;14852;51.910;8.878;2023-05-02T02:20:09;99894.16;;;15.03;55.81
26823;BME280;14852;51.910;8.878;2023-05-02T02:22:41;99899.47;;;15.01;55.58
26823;BME280;14852;51.910;8.878;2023-05-02T02:25:11;99898.53;;;15.02;55.76
26823;BME280;14852;51.910;8.878;2023-05-02T02:27:39;99899.38;;;15.03;55.94
26823;BME280;14852;51.910;8.878;2023-05-02T02:30:07;99899.38;;;15.03;55.76
26823;BME280;14852;51.910;8.878;2023-05-02T02:32:34;99898.53;;;15.02;55.54
26823;BME280;14852;51.910;8.878;2023-05-02T02:35:00;99907.22;;;15.03;55.94
26823;BME280;14852;51.910;8.878;2023-05-02T02:37:37;99900.22;;;15.03;55.76
26823;BME280;14852;51.910;8.878;2023-05-02T02:40:23;99903.56;;;15.05;55.71
26823;BME280;14852;51.910;8.878;2023-05-02T02:46:33;99917.50;;;15.06;56.06
26823;BME280;14852;51.910;8.878;2023-05-02T02:49:29;99917.69;;;15.03;55.61
26823;BME280;14852;51.910;8.878;2023-05-02T02:54:36;99922.31;;;14.99;55.48
26823;BME280;14852;51.910;8.878;2023-05-02T02:57:40;99926.59;;;15.00;56.02
26823;BME280;14852;51.910;8.878;2023-05-02T03:00:12;99926.47;;;15.02;55.48
26823;BME280;14852;51.910;8.878;2023-05-02T03:02:40;99930.28;;;14.98;55.56
26823;BME280;14852;51.910;8.878;2023-05-02T03:05:08;99940.84;;;14.96;55.89
26823;BME280;14852;51.910;8.878;2023-05-02T03:07:35;99946.25;;;14.93;55.77
26823;BME280;14852;51.910;8.878;2023-05-02T03:10:03;99949.91;;;14.91;56.21
26823;BME280;14852;51.910;8.878;2023-05-02T03:12:32;99950.16;;;14.88;56.44
26823;BME280;14852;51.910;8.878;2023-05-02T03:18:01;99957.56;;;14.81;56.14
26823;BME280;14852;51.910;8.878;2023-05-02T03:20:27;99951.47;;;14.80;56.62
26823;BME280;14852;51.910;8.878;2023-05-02T03:22:53;99958.38;;;14.81;56.71
26823;BME280;14852;51.910;8.878;2023-05-02T03:25:19;99965.31;;;14.82;56.74
26823;BME280;14852;51.910;8.878;2023-05-02T03:27:47;99966.88;;;14.85;56.84
26823;BME280;14852;51.910;8.878;2023-05-02T03:30:14;99968.56;;;14.86;56.76
26823;BME280;14852;51.910;8.878;2023-05-02T03:32:40;99966.03;;;14.84;56.84
26823;BME280;14852;51.910;8.878;2023-05-02T03:35:06;99972.00;;;14.87;56.66
26823;BME280;14852;51.910;8.878;2023-05-02T03:37:37;99973.69;;;14.88;56.63
26823;BME280;14852;51.910;8.878;2023-05-02T03:40:03;99969.31;;;14.88;57.03
26823;BME280;14852;51.910;8.878;2023-05-02T03:42:29;99971.91;;;14.88;57.07
26823;BME280;14852;51.910;8.878;2023-05-02T03:44:56;99971.78;;;14.90;57.02
26823;BME280;14852;51.910;8.878;2023-05-02T03:47:25;99970.94;;;14.89;56.67
26823;BME280;14852;51.910;8.878;2023-05-02T03:49:51;99973.69;;;14.88;57.13
26823;BME280;14852;51.910;8.878;2023-05-02T03:52:18;99976.31;;;14.88;57.23
26823;BME280;14852;51.910;8.878;2023-05-02T03:54:44;99977.16;;;14.88;56.81
26823;BME280;14852;51.910;8.878;2023-05-02T03:57:11;99968.47;;;14.88;57.21
26823;BME280;14852;51.910;8.878;2023-05-02T03:59:38;99975.34;;;14.89;57.41
26823;BME280;14852;51.910;8.878;2023-05-02T04:02:14;99973.47;;;14.91;56.69
26823;BME280;14852;51.910;8.878;2023-05-02T04:04:44;99980.56;;;14.89;57.20
26823;BME280;14852;51.910;8.878;2023-05-02T04:07:13;99988.66;;;14.85;57.13
26823;BME280;14852;51.910;8.878;2023-05-02T04:09:44;99990.63;;;14.82;56.80
26823;BME280;14852;51.910;8.878;2023-05-02T04:12:13;99998.66;;;14.79;57.26
26823;BME280;14852;51.910;8.878;2023-05-02T04:14:42;99995.31;;;14.77;57.24
26823;BME280;14852;51.910;8.878;2023-05-02T04:17:08;100002.22;;;14.78;56.98
26823;BME280;14852;51.910;8.878;2023-05-02T04:19:41;100008.28;;;14.78;56.93
26823;BME280;14852;51.910;8.878;2023-05-02T04:22:08;100011.41;;;14.71;57.08
26823;BME280;14852;51.910;8.878;2023-05-02T04:24:38;100022.28;;;14.65;57.10
26823;BME280;14852;51.910;8.878;2023-05-02T04:27:04;100017.25;;;14.62;57.41
26823;BME280;14852;51.910;8.878;2023-05-02T04:29:30;100019.97;;;14.60;57.55
26823;BME280;14852;51.910;8.878;2023-05-02T04:31:57;100022.66;;;14.59;57.56
26823;BME280;14852;51.910;8.878;2023-05-02T04:34:25;100028.75;;;14.59;57.81
26823;BME280;14852;51.910;8.878;2023-05-02T04:36:52;100034.81;;;14.60;57.72
26823;BME280;14852;51.910;8.878;2023-05-02T04:39:21;100035.56;;;14.62;57.54
26823;BME280;14852;51.910;8.878;2023-05-02T04:41:58;100041.63;;;14.62;57.68
26823;BME280;14852;51.910;8.878;2023-05-02T04:44:26;100044.16;;;14.64;57.26
26823;BME280;14852;51.910;8.878;2023-05-02T04:46:53;100044.16;;;14.64;57.69
26823;BME280;14852;51.910;8.878;2023-05-02T04:49:19;100046.84;;;14.62;57.45
26823;BME280;14852;51.910;8.878;2023-05-02T04:51:45;100050.31;;;14.63;58.01
26823;BME280;14852;51.910;8.878;2023-05-02T04:54:12;100058.16;;;14.63;57.59
26823;BME280;14852;51.910;8.878;2023-05-02T04:56:39;100055.53;;;14.63;57.79
26823;BME280;14852;51.910;8.878;2023-05-02T04:59:05;100063.38;;;14.63;57.63
26823;BME280;14852;51.910;8.878;2023-05-02T05:01:32;100070.06;;;14.67;57.70
26823;BME280;14852;51.910;8.878;2023-05-02T05:04:00;100068.31;;;14.67;57.87
26823;BME280;14852;51.910;8.878;2023-05-02T05:06:26;100071.66;;;14.69;57.93
26823;BME280;14852;51.910;8.878;2023-05-02T05:08:53;100074.94;;;14.73;57.82
26823;BME280;14852;51.910;8.878;2023-05-02T05:11:18;100066.91;;;14.76;57.56
26823;BME280;14852;51.910;8.878;2023-05-02T05:13:44;100067.59;;;14.78;57.42
26823;BME280;14852;51.910;8.878;2023-05-02T05:16:12;100074.53;;;14.79;57.63
26823;BME280;14852;51.910;8.878;2023-05-02T05:18:37;100078.91;;;14.78;57.80
26823;BME280;14852;51.910;8.878;2023-05-02T05:21:09;100075.47;;;14.78;57.66
26823;BME280;14852;51.910;8.878;2023-05-02T05:23:36;100083.31;;;14.78;57.64
26823;BME280;14852;51.910;8.878;2023-05-02T05:26:13;100084.97;;;14.79;57.74
26823;BME280;14852;51.910;8.878;2023-05-02T05:28:43;100084.25;;;14.77;57.84
26823;BME280;14852;51.910;8.878;2023-05-02T05:31:13;100090.63;;;14.73;58.01
26823;BME280;14852;51.910;8.878;2023-05-02T05:33:45;100087.44;;;14.68;58.02
26823;BME280;14852;51.910;8.878;2023-05-02T05:36:13;100103.16;;;14.68;57.94
26823;BME280;14852;51.910;8.878;2023-05-02T05:38:42;100103.16;;;14.68;58.43
26823;BME280;14852;51.910;8.878;2023-05-02T05:41:09;100103.16;;;14.68;58.04
26823;BME280;14852;51.910;8.878;2023-05-02T05:43:37;100109.22;;;14.68;58.54
26823;BME280;14852;51.910;8.878;2023-05-02T05:46:03;100112.66;;;14.69;58.38
26823;BME280;14852;51.910;8.878;2023-05-02T05:48:31;100116.13;;;14.69;58.73
26823;BME280;14852;51.910;8.878;2023-05-02T05:51:03;100122.19;;;14.70;58.42
26823;BME280;14852;51.910;8.878;2023-05-02T05:53:30;100115.38;;;14.67;58.40
26823;BME280;14852;51.910;8.878;2023-05-02T05:55:57;100125.09;;;14.65;58.40
26823;BME280;14852;51.910;8.878;2023-05-02T05:58:23;100127.00;;;14.63;58.69
26823;BME280;14852;51.910;8.878;2023-05-02T06:00:51;100139.13;;;14.64;58.67
26823;BME280;14852;51.910;8.878;2023-05-02T06:03:17;100136.31;;;14.67;58.62
26823;BME280;14852;51.910;8.878;2023-05-02T06:05:44;100141.63;;;14.66;58.65
26823;BME280;14852;51.910;8.878;2023-05-02T06:08:10;100149.78;;;14.61;58.59
26823;BME280;14852;51.910;8.878;2023-05-02T06:10:37;100144.19;;;14.53;59.02
26823;BME280;14852;51.910;8.878;2023-05-02T06:13:03;100153.44;;;14.44;59.02
26823;BME280;14852;51.910;8.878;2023-05-02T06:15:33;100156.69;;;14.34;59.52
26823;BME280;14852;51.910;8.878;2023-05-02T06:18:00;100161.38;;;14.29;59.48
26823;BME280;14852;51.910;8.878;2023-05-02T06:20:27;100192.25;;;14.22;59.94
26823;BME280;14852;51.910;8.878;2023-05-02T06:22:52;100213.72;;;14.13;59.78
26823;BME280;14852;51.910;8.878;2023-05-02T06:25:19;100222.91;;;13.90;59.62
26823;BME280;14852;51.910;8.878;2023-05-02T06:27:45;100221.09;;;13.76;59.22
26823;BME280;14852;51.910;8.878;2023-05-02T06:30:12;100227.78;;;13.66;59.24
26823;BME280;14852;51.910;8.878;2023-05-02T06:32:38;100232.53;;;13.60;59.02
26823;BME280;14852;51.910;8.878;2023-05-02T06:35:05;100245.16;;;13.52;59.01
26823;BME280;14852;51.910;8.878;2023-05-02T06:37:34;100240.53;;;13.41;58.77
26823;BME280;14852;51.910;8.878;2023-05-02T06:40:01;100248.72;;;13.35;58.63
26823;BME280;14852;51.910;8.878;2023-05-02T06:42:26;100254.19;;;13.30;58.75
26823;BME280;14852;51.910;8.878;2023-05-02T06:44:52;100261.34;;;13.27;58.70
26823;BME280;14852;51.910;8.878;2023-05-02T06:47:18;100258.25;;;13.20;58.49
26823;BME280;14852;51.910;8.878;2023-05-02T06:49:44;100267.41;;;13.12;58.53
26823;BME280;14852;51.910;8.878;2023-05-02T06:52:09;100279.25;;;13.01;59.12
26823;BME280;14852;51.910;8.878;2023-05-02T06:54:35;100294.22;;;12.98;58.67
26823;BME280;14852;51.910;8.878;2023-05-02T06:57:01;100297.75;;;12.97;58.83
26823;BME280;14852;51.910;8.878;2023-05-02T06:59:27;100306.50;;;12.96;59.03
26823;BME280;14852;51.910;8.878;2023-05-02T07:01:53;100315.31;;;12.93;58.47
26823;BME280;14852;51.910;8.878;2023-05-02T07:04:18;100313.06;;;12.87;59.03
26823;BME280;14852;51.910;8.878;2023-05-02T07:06:45;100320.97;;;12.86;58.67
26823;BME280;14852;51.910;8.878;2023-05-02T07:09:11;100316.81;;;12.82;58.74
26823;BME280;14852;51.910;8.878;2023-05-02T07:11:37;100320.19;;;12.84;58.89
26823;BME280;14852;51.910;8.878;2023-05-02T07:14:02;100323.50;;;12.87;58.85
26823;BME280;14852;51.910;8.878;2023-05-02T07:16:28;100322.56;;;12.88;58.54
26823;BME280;14852;51.910;8.878;2023-05-02T07:18:54;100327.63;;;12.91;58.63
26823;BME280;14852;51.910;8.878;2023-05-02T07:21:20;100326.53;;;12.95;58.79
26823;BME280;14852;51.910;8.878;2023-05-02T07:23:45;100333.50;;;12.95;58.71
26823;BME280;14852;51.910;8.878;2023-05-02T07:26:11;100337.94;;;12.93;58.56
26823;BME280;14852;51.910;8.878;2023-05-02T07:28:37;100340.50;;;12.94;58.37
26823;BME280;14852;51.910;8.878;2023-05-02T07:31:03;100345.88;;;12.91;58.66
26823;BME280;14852;51.910;8.878;2023-05-02T07:33:29;100348.66;;;12.88;58.35
26823;BME280;14852;51.910;8.878;2023-05-02T07:35:55;100348.56;;;12.90;58.46
26823;BME280;14852;51.910;8.878;2023-05-02T07:38:21;100345.88;;;12.91;58.10
26823;BME280;14852;51.910;8.878;2023-05-02T07:40:46;100348.38;;;12.93;58.40
26823;BME280;14852;51.910;8.878;2023-05-02T07:43:13;100353.59;;;12.93;58.30
26823;BME280;14852;51.910;8.878;2023-05-02T07:45:39;100357.75;;;12.97;58.32
26823;BME280;14852;51.910;8.878;2023-05-02T07:48:05;100357.50;;;13.01;58.04
26823;BME280;14852;51.910;8.878;2023-05-02T07:50:31;100363.25;;;13.08;57.99
26823;BME280;14852;51.910;8.878;2023-05-02T07:52:57;100374.25;;;13.15;57.95
26823;BME280;14852;51.910;8.878;2023-05-02T07:55:22;100377.34;;;13.21;58.17
26823;BME280;14852;51.910;8.878;2023-05-02T07:57:51;100376.59;;;13.19;57.98
26823;BME280;14852;51.910;8.878;2023-05-02T08:00:17;100384.56;;;13.16;58.02
26823;BME280;14852;51.910;8.878;2023-05-02T08:02:43;100385.72;;;13.11;58.31
26823;BME280;14852;51.910;8.878;2023-05-02T08:05:10;100384.25;;;13.05;58.19
26823;BME280;14852;51.910;8.878;2023-05-02T08:07:36;100392.09;;;13.05;58.19
26823;BME280;14852;51.910;8.878;2023-05-02T08:10:02;100397.16;;;13.08;58.07
26823;BME280;14852;51.910;8.878;2023-05-02T08:12:28;100397.16;;;13.08;57.93
26823;BME280;14852;51.910;8.878;2023-05-02T08:14:54;100399.53;;;13.13;57.97
26823;BME280;14852;51.910;8.878;2023-05-02T08:17:20;100406.91;;;13.22;57.61
26823;BME280;14852;51.910;8.878;2023-05-02T08:19:46;100413.56;;;13.27;57.98
26823;BME280;14852;51.910;8.878;2023-05-02T08:22:12;100411.72;;;13.29;57.57
26823;BME280;14852;51.910;8.878;2023-05-02T08:24:37;100420.53;;;13.27;57.39
26823;BME280;14852;51.910;8.878;2023-05-02T08:27:03;100424.09;;;13.26;57.16
26823;BME280;14852;51.910;8.878;2023-05-02T08:29:29;100425.69;;;13.28;57.31
26823;BME280;14852;51.910;8.878;2023-05-02T08:31:56;100429.75;;;13.34;57.39
26823;BME280;14852;51.910;8.878;2023-05-02T08:34:22;100432.00;;;13.40;57.18
26823;BME280;14852;51.910;8.878;2023-05-02T08:36:47;100437.00;;;13.45;56.65
26823;BME280;14852;51.910;8.878;2023-05-02T08:39:13;100437.09;;;13.43;56.71
26823;BME280;14852;51.910;8.878;2023-05-02T08:41:39;100444.06;;;13.43;56.67
26823;BME280;14852;51.910;8.878;2023-05-02T08:44:05;100449.28;;;13.43;56.92
26823;BME280;14852;51.910;8.878;2023-05-02T08:46:35;100442.53;;;13.38;56.75
26823;BME280;14852;51.910;8.878;2023-05-02T08:49:02;100452.41;;;13.33;56.47
26823;BME280;14852;51.910;8.878;2023-05-02T08:51:29;100457.06;;;13.27;56.67
26823;BME280;14852;51.910;8.878;2023-05-02T08:53:57;100459.16;;;13.20;56.54
26823;BME280;14852;51.910;8.878;2023-05-02T08:56:24;100461.25;;;13.14;56.53
26823;BME280;14852;51.910;8.878;2023-05-02T08:58:50;100463.69;;;13.17;56.40
26823;BME280;14852;51.910;8.878;2023-05-02T09:01:18;100467.00;;;13.20;56.47
26823;BME280;14852;51.910;8.878;2023-05-02T09:03:47;100475.66;;;13.21;56.13
26823;BME280;14852;51.910;8.878;2023-05-02T09:06:18;100478.06;;;13.25;56.46
26823;BME280;14852;51.910;8.878;2023-05-02T09:08:48;100483.78;;;13.32;56.15
26823;BME280;14852;51.910;8.878;2023-05-02T09:11:15;100487.84;;;13.37;56.10
26823;BME280;14852;51.910;8.878;2023-05-02T09:13:49;100482.22;;;13.45;56.00
26823;BME280;14852;51.910;8.878;2023-05-02T09:16:24;100482.66;;;13.53;55.70
26823;BME280;14852;51.910;8.878;2023-05-02T09:18:55;100492.03;;;13.57;55.31
26823;BME280;14852;51.910;8.878;2023-05-02T09:21:24;100492.88;;;13.58;55.04
26823;BME280;14852;51.910;8.878;2023-05-02T09:23:54;100500.00;;;13.54;55.00
26823;BME280;14852;51.910;8.878;2023-05-02T09:26:27;100502.78;;;13.51;55.64
26823;BME280;14852;51.910;8.878;2023-05-02T09:29:03;100510.09;;;13.45;55.15
26823;BME280;14852;51.910;8.878;2023-05-02T09:31:32;100517.50;;;13.36;55.01
26823;BME280;14852;51.910;8.878;2023-05-02T09:34:16;100519.25;;;13.36;55.30
26823;BME280;14852;51.910;8.878;2023-05-02T09:36:44;100517.03;;;13.28;54.99
26823;BME280;14852;51.910;8.878;2023-05-02T09:39:14;100518.13;;;13.24;55.33
26823;BME280;14852;51.910;8.878;2023-05-02T09:41:44;100519.25;;;13.19;54.91
26823;BME280;14852;51.910;8.878;2023-05-02T09:44:16;100519.53;;;13.14;55.37
26823;BME280;14852;51.910;8.878;2023-05-02T09:46:52;100527.38;;;13.13;55.02
26823;BME280;14852;51.910;8.878;2023-05-02T09:49:24;100525.69;;;13.12;55.21
26823;BME280;14852;51.910;8.878;2023-05-02T09:52:14;100537.75;;;13.31;54.78
26823;BME280;14852;51.910;8.878;2023-05-02T09:54:40;100539.66;;;13.45;54.99
26823;BME280;14852;51.910;8.878;2023-05-02T09:57:06;100541.09;;;13.51;54.41
26823;BME280;14852;51.910;8.878;2023-05-02T09:59:32;100534.88;;;13.53;54.10
26823;BME280;14852;51.910;8.878;2023-05-02T10:02:01;100546.41;;;13.49;54.34
26823;BME280;14852;51.910;8.878;2023-05-02T10:04:30;100539.44;;;13.50;54.05
26823;BME280;14852;51.910;8.878;2023-05-02T10:06:56;100548.94;;;13.51;53.91
26823;BME280;14852;51.910;8.878;2023-05-02T10:09:22;100548.34;;;13.46;54.40
26823;BME280;14852;51.910;8.878;2023-05-02T10:11:54;100542.03;;;13.50;54.34
26823;BME280;14852;51.910;8.878;2023-05-02T10:14:22;100549.47;;;13.57;53.97
26823;BME280;14852;51.910;8.878;2023-05-02T10:17:04;100554.22;;;13.66;54.22
26823;BME280;14852;51.910;8.878;2023-05-02T10:19:44;100550.09;;;13.78;53.89
26823;BME280;14852;51.910;8.878;2023-05-02T10:22:13;100548.84;;;13.85;53.58
26823;BME280;14852;51.910;8.878;2023-05-02T10:24:40;100551.66;;;13.98;53.22
26823;BME280;14852;51.910;8.878;2023-05-02T10:27:07;100557.75;;;14.14;53.12
26823;BME280;14852;51.910;8.878;2023-05-02T10:29:34;100547.38;;;14.28;52.46
26823;BME280;14852;51.910;8.878;2023-05-02T10:32:02;100550.41;;;14.36;52.23
26823;BME280;14852;51.910;8.878;2023-05-02T10:34:31;100545.63;;;14.44;52.62
26823;BME280;14852;51.910;8.878;2023-05-02T10:36:57;100560.22;;;14.48;52.42
26823;BME280;14852;51.910;8.878;2023-05-02T10:39:27;100551.19;;;14.54;52.19
26823;BME280;14852;51.910;8.878;2023-05-02T10:41:55;100554.56;;;14.56;52.15
26823;BME280;14852;51.910;8.878;2023-05-02T10:44:39;100556.91;;;14.76;52.61
26823;BME280;14852;51.910;8.878;2023-05-02T10:47:22;100562.63;;;14.83;52.27
26823;BME280;14852;51.910;8.878;2023-05-02T10:50:02;100560.19;;;14.80;51.99
26823;BME280;14852;51.910;8.878;2023-05-02T10:52:37;100564.16;;;14.71;52.00
26823;BME280;14852;51.910;8.878;2023-05-02T11:02:51;100580.94;;;14.67;51.57
26823;BME280;14852;51.910;8.878;2023-05-02T11:05:17;100586.03;;;14.70;51.82
26823;BME280;14852;51.910;8.878;2023-05-02T11:07:43;100592.94;;;14.71;51.37
26823;BME280;14852;51.910;8.878;2023-05-02T11:12:56;100592.09;;;14.55;51.90
26823;BME280;14852;51.910;8.878;2023-05-02T11:18:10;100596.59;;;14.20;51.79
26823;BME280;14852;51.910;8.878;2023-05-02T11:20:45;100594.91;;;14.19;51.40
26823;BME280;14852;51.910;8.878;2023-05-02T11:25:48;100593.25;;;14.18;51.41
26823;BME280;14852;51.910;8.878;2023-05-02T11:31:07;100588.75;;;14.20;50.95
26823;BME280;14852;51.910;8.878;2023-05-02T11:33:34;100591.97;;;14.25;50.51
26823;BME280;14852;51.910;8.878;2023-05-02T11:36:01;100595.94;;;14.32;50.41
26823;BME280;14852;51.910;8.878;2023-05-02T11:38:37;100600.94;;;14.37;50.34
26823;BME280;14852;51.910;8.878;2023-05-02T11:41:03;100601.06;;;14.51;49.73
26823;BME280;14852;51.910;8.878;2023-05-02T11:43:30;100598.78;;;14.61;49.51
26823;BME280;14852;51.910;8.878;2023-05-02T11:45:56;100604.72;;;14.78;49.28
26823;BME280;14852;51.910;8.878;2023-05-02T11:48:24;100601.66;;;15.02;48.81
26823;BME280;14852;51.910;8.878;2023-05-02T11:50:57;100592.38;;;15.26;48.84
26823;BME280;14852;51.910;8.878;2023-05-02T11:53:27;100600.28;;;15.40;48.27
26823;BME280;14852;51.910;8.878;2023-05-02T11:55:56;100592.81;;;15.48;48.16
26823;BME280;14852;51.910;8.878;2023-05-02T11:58:25;100602.34;;;15.49;47.61
26823;BME280;14852;51.910;8.878;2023-05-02T12:00:54;100601.50;;;15.49;47.86
26823;BME280;14852;51.910;8.878;2023-05-02T12:03:31;100609.06;;;15.55;47.95
26823;BME280;14852;51.910;8.878;2023-05-02T12:06:14;100610.66;;;15.57;48.23
26823;BME280;14852;51.910;8.878;2023-05-02T12:08:42;100614.59;;;15.49;48.37
26823;BME280;14852;51.910;8.878;2023-05-02T12:11:08;100618.03;;;15.35;48.06
26823;BME280;14852;51.910;8.878;2023-05-02T12:13:34;100626.59;;;15.23;48.07
26823;BME280;14852;51.910;8.878;2023-05-02T12:16:08;100626.03;;;15.18;48.30
26823;BME280;14852;51.910;8.878;2023-05-02T12:18:34;100637.53;;;15.15;48.27
26823;BME280;14852;51.910;8.878;2023-05-02T12:21:00;100636.75;;;15.13;48.11
26823;BME280;14852;51.910;8.878;2023-05-02T12:23:26;100631.88;;;15.07;48.11
26823;BME280;14852;51.910;8.878;2023-05-02T12:25:52;100641.34;;;15.10;47.91
26823;BME280;14852;51.910;8.878;2023-05-02T12:28:18;100648.16;;;15.12;47.94
26823;BME280;14852;51.910;8.878;2023-05-02T12:30:47;100651.63;;;15.13;47.73
26823;BME280;14852;51.910;8.878;2023-05-02T12:33:14;100650.69;;;15.14;47.75
26823;BME280;14852;51.910;8.878;2023-05-02T12:35:41;100656.84;;;15.13;47.45
26823;BME280;14852;51.910;8.878;2023-05-02T12:38:13;100651.81;;;15.10;47.77
26823;BME280;14852;51.910;8.878;2023-05-02T12:40:49;100663.00;;;15.12;47.43
26823;BME280;14852;51.910;8.878;2023-05-02T12:43:15;100659.56;;;15.11;47.54
26823;BME280;14852;51.910;8.878;2023-05-02T12:45:41;100658.38;;;15.01;47.45
26823;BME280;14852;51.910;8.878;2023-05-02T12:48:26;100663.38;;;15.06;47.87
26823;BME280;14852;51.910;8.878;2023-05-02T12:50:53;100665.75;;;15.10;47.32
26823;BME280;14852;51.910;8.878;2023-05-02T12:53:43;100667.06;;;15.17;47.22
26823;BME280;14852;51.910;8.878;2023-05-02T12:56:10;100668.53;;;15.07;46.43
26823;BME280;14852;51.910;8.878;2023-05-02T12:58:47;100673.38;;;14.99;47.02
26823;BME280;14852;51.910;8.878;2023-05-02T13:01:14;100674.09;;;15.01;46.80
26823;BME280;14852;51.910;8.878;2023-05-02T13:03:42;100677.31;;;15.06;46.75
26823;BME280;14852;51.910;8.878;2023-05-02T13:06:08;100675.47;;;15.08;46.50
26823;BME280;14852;51.910;8.878;2023-05-02T13:08:35;100680.00;;;15.20;46.25
26823;BME280;14852;51.910;8.878;2023-05-02T13:11:04;100678.63;;;15.29;45.95
26823;BME280;14852;51.910;8.878;2023-05-02T13:13:30;100678.09;;;15.38;45.35
26823;BME280;14852;51.910;8.878;2023-05-02T13:15:57;100675.38;;;15.40;45.09
26823;BME280;14852;51.910;8.878;2023-05-02T13:18:22;100689.41;;;15.39;44.89
26823;BME280;14852;51.910;8.878;2023-05-02T13:20:48;100682.16;;;15.44;44.36
26823;BME280;14852;51.910;8.878;2023-05-02T13:23:14;100676.44;;;15.51;44.88
26823;BME280;14852;51.910;8.878;2023-05-02T13:25:41;100681.22;;;15.75;44.82
26823;BME280;14852;51.910;8.878;2023-05-02T13:28:07;100682.09;;;15.89;44.00
26823;BME280;14852;51.910;8.878;2023-05-02T13:30:32;100676.66;;;16.07;43.60
26823;BME280;14852;51.910;8.878;2023-05-02T13:32:58;100680.63;;;16.14;43.74